Palmdale, CA (93590)

4:48 AM PDT on September 18, 2014 (GMT -0700)
WestCoastHosting.Com | Change Station
CLOSE
Current Station
Personal Weather Station
Location: Palmdale, CA
Elevation: 2700 ft
Nearby Weather Stations

Elev 2700 ft 34.57 °N, 118.03 °W | Updated 2 minutes ago

Clear
Clear
75.4 °F
Feels Like 77 °F
N
1.0
Wind Variable Wind from West
Gusts 4.0 mph

Today
High -- | Low -- °F
--% Chance of Precip.
Yesterday
High -- | Low -- °F
Precip. -- in
6:37 AM 6:54 PM
Waning Crescent, 28% visible
Pressure 29.73 in
Visibility 10.0 miles
Clouds Clear
Heat Index 77 °F
Dew Point 44 °F
Humidity 32%
Rainfall 0.00 in
Snow Depth 0 in , 0 in , 1 in
UV 0 out of 12
Pollen 6.80 out of 12
Ozone Good
Flu Activity Not available.
METAR KPMD 181053Z AUTO 24014G20KT 10SM CLR 27/03 A2984 RMK AO2 SLP066 T02670028

More Conditions Fewer Conditions

Pressure 29.73 in
Visibility 10.0 miles
Clouds Clear
Heat Index 77 °F
Dew Point 44 °F
Humidity 32%
Rainfall 0.00 in
Snow Depth 0 in , 0 in , 1 in
UV 0 out of 12
Pollen 6.80 out of 12
Ozone Good
Flu Activity Not available.
METAR KPMD 181053Z AUTO 24014G20KT 10SM CLR 27/03 A2984 RMK AO2 SLP066 T02670028

More Conditions Fewer Conditions

10-Day Weather Forecast

Almanac

Astronomy

Sep. 18, 2014 Rise Set
Actual Time 6:37 AM PDT 6:54 PM PDT
Civil Twilight 6:12 AM PDT 7:19 PM PDT
Nautical Twilight 5:42 AM PDT 7:49 PM PDT
Astronomical Twilight 5:12 AM PDT 8:19 PM PDT
Moon 1:43 AM PDT 3:40 PM PDT
Length of Visible Light 13h 07m
Length of Day
12h 17m
Tomorrow will be 2m 9s shorter.
Waning Crescent, 28% of the Moon is Illuminated
Today
Waning Crescent
Sep 24
New
Oct 1
First Quarter
Oct 8
Full
Oct 15
Last Quarter

Today's Extremes

State Highs State Lows

Community

WunderPhotos

Upload Photos

1,754,324 photos uploaded!

Nearby

Air Quality

  Air Quality AQ Index Pollutant
Yesterday Moderate
OZONE
Yesterday Good
PM10
Current Good
OZONE
Thursday Moderate
OZONE
Thursday Good
PM10
Thursday Good
CO
Thursday Good
NO2

Snow Depth

Station Depth Elevation
Fallen Leaf 0 in 6300 ft
Blue Lakes 0 in 8000 ft
Echo Peak 1 in 7800 ft
Hagan's Meadow 0 in 8000 ft
Sonora Pass 0 in 8800 ft

Earthquake Activity

City Distance Mag. Time & Date
La Quinta, California 119 miles 2.7 8:59 PM PDT
2014-09-15
Minimum magnitude displayed is 2.5.

Coastal Water Temperatures

Place Temperature
No Stations Reporting

Nearby Weather Stations